createdAt,value
2018-04-12T00:02:23.048Z,22.53
2018-04-12T00:08:27.449Z,24.30
2018-04-12T00:14:31.959Z,22.33
2018-04-12T00:20:37.276Z,24.43
2018-04-12T00:26:41.797Z,23.27
2018-04-12T00:32:46.996Z,26.53
2018-04-12T00:38:51.457Z,28.43
2018-04-12T00:44:55.839Z,30.00
2018-04-12T00:51:00.264Z,27.27
2018-04-12T00:57:04.753Z,28.77
2018-04-12T01:03:09.193Z,29.43
2018-04-12T01:09:14.402Z,31.73
2018-04-12T01:15:18.763Z,33.50
2018-04-12T01:21:24.791Z,30.20
2018-04-12T01:27:29.227Z,30.87
2018-04-12T01:33:33.701Z,30.63
2018-04-12T01:39:38.070Z,33.07
2018-04-12T01:45:43.002Z,35.53
2018-04-12T01:51:47.864Z,35.00
2018-04-12T01:57:53.132Z,37.53
2018-04-12T02:03:57.612Z,40.00
2018-04-12T02:10:02.073Z,40.40
2018-04-12T02:16:06.450Z,41.33
2018-04-12T02:22:11.754Z,42.10
2018-04-12T02:28:16.112Z,44.27
2018-04-12T02:34:21.247Z,46.60
2018-04-12T02:40:25.638Z,41.67
2018-04-12T02:46:30.038Z,44.23
2018-04-12T02:52:34.446Z,41.20
2018-04-12T02:58:38.882Z,45.20
2018-04-12T03:04:43.571Z,40.57
2018-04-12T03:10:48.702Z,37.80
2018-04-12T03:16:53.186Z,36.50
2018-04-12T03:22:57.548Z,38.67
2018-04-12T03:29:01.938Z,39.50
2018-04-12T03:35:06.310Z,39.17
2018-04-12T03:41:11.227Z,39.87
2018-04-12T03:47:16.488Z,40.77
2018-04-12T03:53:21.070Z,41.47
2018-04-12T03:59:25.843Z,43.60
2018-04-12T04:05:30.503Z,39.83
2018-04-12T04:11:35.243Z,43.73
2018-04-12T04:17:57.526Z,41.47
2018-04-12T04:24:02.069Z,37.70
2018-04-12T04:30:07.355Z,42.63
2018-04-12T04:36:12.873Z,42.23
2018-04-12T04:42:17.224Z,42.07
2018-04-12T04:48:21.667Z,38.10
2018-04-12T04:54:26.042Z,39.13
2018-04-12T05:00:30.390Z,39.07
2018-04-12T05:06:34.759Z,41.90
2018-04-12T05:12:39.423Z,43.33
2018-04-12T05:18:44.669Z,45.67
2018-04-12T05:24:49.032Z,44.37
2018-04-12T05:30:53.442Z,39.77
2018-04-12T05:36:58.612Z,37.20
2018-04-12T05:43:03.080Z,39.70
2018-04-12T05:49:07.452Z,38.87
2018-04-12T05:55:13.129Z,38.20
2018-04-12T06:01:17.483Z,40.40
2018-04-12T06:07:22.672Z,39.17
2018-04-12T06:13:28.532Z,41.60
2018-04-12T06:19:32.951Z,39.47
2018-04-12T06:25:38.081Z,36.10
2018-04-12T06:31:42.768Z,37.67
2018-04-12T06:37:47.171Z,34.60
2018-04-12T06:43:51.726Z,34.40
2018-04-12T06:49:57.303Z,32.90
2018-04-12T06:56:02.004Z,31.93
2018-04-12T07:02:06.371Z,31.90
2018-04-12T07:08:10.905Z,31.03
2018-04-12T07:14:15.448Z,29.90
2018-04-12T07:20:19.828Z,30.80
2018-04-12T07:26:24.435Z,28.80
2018-04-12T07:32:29.054Z,29.80
2018-04-12T07:38:33.420Z,31.87
2018-04-12T07:44:37.788Z,31.90
2018-04-12T07:50:43.051Z,31.90
2018-04-12T07:56:47.447Z,30.33
2018-04-12T08:02:51.806Z,31.00
2018-04-12T08:08:56.226Z,34.47
2018-04-12T08:15:00.584Z,34.97
2018-04-12T08:21:05.720Z,34.43
2018-04-12T08:27:10.439Z,35.53
2018-04-12T08:33:14.821Z,32.10
2018-04-12T08:39:19.201Z,30.50
2018-04-12T08:45:24.411Z,31.30
2018-04-12T08:51:28.829Z,32.03
2018-04-12T08:57:33.182Z,30.60
2018-04-12T09:03:37.555Z,31.60
2018-04-12T09:09:42.120Z,31.07
2018-04-12T09:15:46.557Z,31.33
2018-04-12T09:21:51.794Z,32.23
2018-04-12T09:27:56.394Z,31.63
2018-04-12T09:34:00.792Z,30.07
2018-04-12T09:40:05.179Z,29.30
2018-04-12T09:46:09.623Z,29.33
2018-04-12T09:52:14.178Z,29.27
2018-04-12T09:58:18.714Z,30.23
2018-04-12T10:04:27.029Z,34.70
2018-04-12T10:10:31.406Z,31.57
2018-04-12T10:16:35.912Z,30.20
2018-04-12T10:22:40.410Z,28.03
2018-04-12T10:28:44.849Z,29.80
2018-04-12T10:34:49.351Z,32.40
2018-04-12T10:40:53.723Z,28.80
2018-04-12T10:46:58.152Z,27.33
2018-04-12T10:53:02.633Z,22.60
2018-04-12T10:59:07.765Z,22.13
2018-04-12T11:05:13.020Z,24.70
2018-04-12T11:11:17.445Z,27.50
2018-04-12T11:17:21.809Z,27.13
2018-04-12T11:23:26.192Z,30.97
2018-04-12T11:29:30.623Z,26.37
2018-04-12T11:35:35.010Z,25.07
2018-04-12T11:41:39.365Z,26.77
2018-04-12T11:47:43.761Z,25.30
2018-04-12T11:53:48.157Z,26.57
2018-04-12T11:59:53.360Z,28.30
2018-04-12T12:05:57.908Z,30.43
2018-04-12T12:12:02.382Z,29.03
2018-04-12T12:18:06.770Z,30.97
2018-04-12T12:24:11.698Z,31.17
2018-04-12T12:30:16.336Z,33.67
2018-04-12T12:36:20.712Z,30.60
2018-04-12T12:42:30.880Z,30.60
2018-04-12T12:48:36.036Z,32.87
2018-04-12T12:54:40.513Z,29.47
2018-04-12T13:00:45.232Z,20.30
2018-04-12T13:06:55.837Z,21.53
2018-04-12T13:13:00.202Z,20.17
2018-04-12T13:19:10.345Z,20.40
2018-04-12T13:25:21.371Z,20.43
2018-04-12T13:31:25.736Z,19.87
2018-04-12T13:37:30.103Z,18.47
2018-04-12T13:43:34.479Z,19.53
2018-04-12T13:49:38.855Z,16.63
2018-04-12T13:55:43.216Z,15.90
2018-04-12T14:01:47.610Z,16.17
2018-04-12T14:07:53.484Z,16.43
2018-04-12T14:13:57.860Z,15.50
2018-04-12T14:20:13.735Z,16.50
2018-04-12T14:26:23.983Z,18.47
2018-04-12T14:32:34.394Z,20.13
2018-04-12T14:38:39.549Z,12.27
2018-04-12T14:44:43.944Z,9.67
2018-04-12T14:50:55.020Z,9.83
2018-04-12T14:57:05.328Z,8.60
2018-04-12T15:03:15.219Z,9.50
2018-04-12T15:09:25.564Z,8.03
2018-04-12T15:15:41.709Z,9.53
2018-04-12T15:21:57.720Z,9.80
2018-04-12T15:28:13.710Z,13.70
2018-04-12T15:34:23.902Z,12.40
2018-04-12T15:40:28.280Z,12.40
2018-04-12T15:46:32.756Z,13.00
2018-04-12T15:52:49.023Z,10.93
2018-04-12T15:58:53.598Z,11.33
2018-04-12T16:04:57.972Z,10.50
2018-04-12T16:11:08.319Z,9.63
2018-04-12T16:17:18.503Z,7.90
2018-04-12T16:23:22.967Z,7.70
2018-04-12T16:29:40.011Z,6.93
2018-04-12T16:35:45.154Z,7.27
2018-04-12T16:41:55.408Z,7.50
2018-04-12T16:48:05.750Z,6.37
2018-04-12T16:54:15.925Z,7.13
2018-04-12T17:00:20.319Z,8.30
2018-04-12T17:06:31.500Z,6.70
2018-04-12T17:12:41.791Z,6.77
2018-04-12T17:18:46.159Z,6.70
2018-04-12T17:24:57.078Z,6.53
2018-04-12T17:31:07.853Z,6.43
2018-04-12T17:37:23.800Z,6.17
2018-04-12T17:43:34.066Z,5.90
2018-04-12T17:49:39.377Z,5.80
2018-04-12T17:55:55.399Z,6.00
2018-04-12T18:01:59.760Z,4.93
2018-04-12T18:08:10.193Z,5.37
2018-04-12T18:14:26.016Z,5.90
2018-04-12T18:20:30.373Z,5.93
2018-04-12T18:26:34.743Z,5.80
2018-04-12T18:32:45.073Z,5.80
2018-04-12T18:38:49.491Z,5.10
2018-04-12T18:45:00.573Z,4.83
2018-04-12T18:51:10.871Z,4.83
2018-04-12T18:57:15.258Z,3.90
2018-04-12T19:03:19.633Z,4.93
2018-04-12T19:09:35.503Z,4.80
2018-04-12T19:15:40.119Z,4.87
2018-04-12T19:21:44.832Z,4.10
2018-04-12T19:27:49.217Z,4.47
2018-04-12T19:33:53.573Z,4.37
2018-04-12T19:39:57.930Z,4.63
2018-04-12T19:46:02.312Z,4.47
2018-04-12T19:52:06.688Z,5.00
2018-04-12T19:58:16.912Z,4.73
2018-04-12T20:04:21.282Z,6.20
2018-04-12T20:10:25.645Z,6.90
2018-04-12T20:16:35.851Z,6.20
2018-04-12T20:22:40.604Z,6.33
2018-04-12T20:28:56.560Z,6.10
2018-04-12T20:35:07.616Z,5.97
2018-04-12T20:41:17.982Z,6.93
2018-04-12T20:47:28.391Z,6.77
2018-04-12T20:53:44.558Z,6.60
2018-04-12T20:59:54.889Z,7.20
2018-04-12T21:06:00.052Z,7.20
2018-04-12T21:12:04.419Z,7.57
2018-04-12T21:18:20.622Z,6.53
2018-04-12T21:24:25.853Z,5.70
2018-04-12T21:30:36.200Z,7.13
2018-04-12T21:36:40.895Z,6.73
2018-04-12T21:42:45.414Z,6.87
2018-04-12T21:48:50.212Z,7.20
2018-04-12T21:54:54.580Z,7.90
2018-04-12T22:00:58.937Z,5.40
2018-04-12T22:07:09.151Z,4.40
2018-04-12T22:13:13.631Z,3.67
2018-04-12T22:19:23.983Z,3.83
2018-04-12T22:25:28.415Z,3.90
2018-04-12T22:31:51.015Z,4.60
2018-04-12T22:38:07.562Z,3.30
2018-04-12T22:44:12.038Z,3.13
2018-04-12T22:50:22.388Z,3.10
2018-04-12T22:56:26.855Z,3.47
2018-04-12T23:02:31.223Z,3.20
2018-04-12T23:08:41.874Z,5.10
2018-04-12T23:14:46.347Z,6.17
2018-04-12T23:20:56.470Z,5.80
2018-04-12T23:27:01.011Z,6.47
2018-04-12T23:33:12.470Z,7.20
2018-04-12T23:39:28.434Z,7.40
2018-04-12T23:45:38.844Z,8.10
2018-04-12T23:51:43.373Z,8.60
2018-04-12T23:57:47.742Z,8.43
